createdAt,value
2023-02-02T00:01:35.472Z,100195.91
2023-02-02T00:04:38.407Z,100190.88
2023-02-02T00:07:40.935Z,100181.28
2023-02-02T00:10:44.165Z,100177.88
2023-02-02T00:13:46.706Z,100193.91
2023-02-02T00:16:51.139Z,100200.16
2023-02-02T00:19:54.088Z,100216.19
2023-02-02T00:22:57.313Z,100241.94
2023-02-02T00:25:59.787Z,100225.19
2023-02-02T00:29:03.308Z,100241.31
2023-02-02T00:32:06.073Z,100238.78
2023-02-02T00:35:10.154Z,100239.63
2023-02-02T00:38:12.669Z,100242.34
2023-02-02T00:41:15.695Z,100239.63
2023-02-02T00:44:36.892Z,100236.87
2023-02-02T00:47:39.820Z,100250.06
2023-02-02T00:50:42.487Z,100235.97
2023-02-02T00:53:45.353Z,100244.72
2023-02-02T00:56:47.841Z,100235.97
2023-02-02T00:59:50.735Z,100221.84
2023-02-02T01:02:55.585Z,100222.69
2023-02-02T01:05:58.581Z,100204.06
2023-02-02T01:09:01.248Z,100193.53
2023-02-02T01:12:04.905Z,100172.37
2023-02-02T01:15:07.857Z,100170.84
2023-02-02T01:18:10.734Z,100179.53
2023-02-02T01:21:14.031Z,100193.84
2023-02-02T01:24:16.874Z,100210.63
2023-02-02T01:27:19.445Z,100224.72
2023-02-02T01:30:22.857Z,100230.94
2023-02-02T01:33:25.578Z,100233.66
2023-02-02T01:36:28.651Z,100216.66
2023-02-02T01:39:32.332Z,100225.41
2023-02-02T01:42:36.452Z,100239.50
2023-02-02T01:45:38.984Z,100254.44
2023-02-02T01:48:48.389Z,100250.06
2023-02-02T01:51:54.329Z,100255.47
2023-02-02T01:55:08.557Z,100238.56
2023-02-02T01:58:15.963Z,100225.12
2023-02-02T02:01:19.032Z,100211.56
2023-02-02T02:04:22.840Z,100227.41
2023-02-02T02:07:25.688Z,100233.53
2023-02-02T02:10:28.556Z,100245.88
2023-02-02T02:13:50.901Z,100244.94
2023-02-02T02:17:10.565Z,100240.53
2023-02-02T02:20:54.003Z,100235.16
2023-02-02T02:24:46.404Z,100227.03
2023-02-02T02:27:59.973Z,100231.44
2023-02-02T02:31:25.944Z,100223.25
2023-02-02T02:34:36.275Z,100220.50
2023-02-02T02:38:10.059Z,100225.59
2023-02-02T02:41:26.044Z,100234.25
2023-02-02T02:44:29.639Z,100227.03
2023-02-02T02:47:32.607Z,100226.81
2023-02-02T02:50:35.456Z,100223.22
2023-02-02T02:53:38.268Z,100210.91
2023-02-02T02:56:52.678Z,100220.69
2023-02-02T03:00:17.298Z,100226.19
2023-02-02T03:03:42.002Z,100232.50
2023-02-02T03:06:53.382Z,100228.19
2023-02-02T03:09:58.706Z,100239.31
2023-02-02T03:13:01.243Z,100237.47
2023-02-02T03:16:04.265Z,100232.69
2023-02-02T03:19:07.594Z,100220.03
2023-02-02T03:22:10.367Z,100222.31
2023-02-02T03:25:13.031Z,100225.03
2023-02-02T03:28:16.913Z,100232.88
2023-02-02T03:31:20.262Z,100226.94
2023-02-02T03:34:23.189Z,100231.50
2023-02-02T03:37:26.304Z,100224.31
2023-02-02T03:40:29.499Z,100221.56
2023-02-02T03:43:32.347Z,100225.94
2023-02-02T03:46:35.462Z,100224.16
2023-02-02T03:49:38.106Z,100237.84
2023-02-02T03:52:41.012Z,100233.84
2023-02-02T03:55:43.597Z,100225.47
2023-02-02T03:58:47.446Z,100243.72
2023-02-02T04:01:50.123Z,100246.09
2023-02-02T04:04:52.985Z,100239.94
2023-02-02T04:07:55.525Z,100252.22
2023-02-02T04:10:59.681Z,100249.22
2023-02-02T04:14:02.387Z,100254.50
2023-02-02T04:17:05.240Z,100252.91
2023-02-02T04:20:08.423Z,100245.75
2023-02-02T04:23:11.183Z,100256.41
2023-02-02T04:26:13.769Z,100248.62
2023-02-02T04:29:16.802Z,100246.78
2023-02-02T04:32:19.687Z,100257.31
2023-02-02T04:35:22.761Z,100236.03
2023-02-02T04:38:25.699Z,100246.12
2023-02-02T04:41:28.623Z,100246.91
2023-02-02T04:44:31.155Z,100263.53
2023-02-02T04:47:33.939Z,100273.59
2023-02-02T04:50:36.557Z,100283.47
2023-02-02T04:53:40.161Z,100275.09
2023-02-02T04:56:42.762Z,100290.81
2023-02-02T04:59:45.589Z,100292.38
2023-02-02T05:02:48.234Z,100289.13
2023-02-02T05:05:51.018Z,100307.16
2023-02-02T05:08:53.724Z,100311.06
2023-02-02T05:11:56.692Z,100299.00
2023-02-02T05:15:01.219Z,100298.56
2023-02-02T05:18:04.078Z,100290.78
2023-02-02T05:21:07.001Z,100280.19
2023-02-02T05:24:10.138Z,100278.44
2023-02-02T05:27:12.744Z,100285.56
2023-02-02T05:30:16.136Z,100281.06
2023-02-02T05:33:19.638Z,100282.88
2023-02-02T05:36:22.499Z,100288.25
2023-02-02T05:39:25.993Z,100291.03
2023-02-02T05:42:28.846Z,100286.81
2023-02-02T05:45:31.541Z,100297.56
2023-02-02T05:48:34.531Z,100286.22
2023-02-02T05:51:46.023Z,100306.50
2023-02-02T05:54:48.990Z,100302.13
2023-02-02T05:57:51.655Z,100298.69
2023-02-02T06:00:56.784Z,100300.31
2023-02-02T06:03:59.813Z,100307.28
2023-02-02T06:07:02.350Z,100306.19
2023-02-02T06:10:05.667Z,100306.88
2023-02-02T06:13:08.815Z,100307.63
2023-02-02T06:16:11.895Z,100320.09
2023-02-02T06:19:14.894Z,100314.06
2023-02-02T06:22:17.877Z,100312.47
2023-02-02T06:25:20.533Z,100321.47
2023-02-02T06:28:23.739Z,100320.78
2023-02-02T06:31:27.263Z,100334.31
2023-02-02T06:34:30.243Z,100343.25
2023-02-02T06:37:34.235Z,100350.47
2023-02-02T06:40:37.282Z,100356.72
2023-02-02T06:43:40.105Z,100357.84
2023-02-02T06:46:43.066Z,100366.09
2023-02-02T06:49:45.722Z,100370.56
2023-02-02T06:52:49.788Z,100376.00
2023-02-02T06:55:56.884Z,100389.37
2023-02-02T06:58:59.767Z,100394.91
2023-02-02T07:02:02.632Z,100389.78
2023-02-02T07:05:06.119Z,100392.72
2023-02-02T07:08:08.877Z,100397.56
2023-02-02T07:11:15.779Z,100400.66
2023-02-02T07:14:18.934Z,100394.97
2023-02-02T07:17:21.964Z,100374.41
2023-02-02T07:20:24.971Z,100387.41
2023-02-02T07:23:28.715Z,100393.53
2023-02-02T07:26:31.574Z,100391.91
2023-02-02T07:29:34.578Z,100384.03
2023-02-02T07:32:37.354Z,100384.19
2023-02-02T07:35:40.665Z,100374.50
2023-02-02T07:38:44.184Z,100385.69
2023-02-02T07:41:47.336Z,100381.28
2023-02-02T07:44:50.361Z,100400.69
2023-02-02T07:47:57.619Z,100393.63
2023-02-02T07:51:05.424Z,100391.09
2023-02-02T07:54:09.338Z,100404.72
2023-02-02T07:57:13.869Z,100398.19
2023-02-02T08:00:17.703Z,100397.16
2023-02-02T08:03:21.135Z,100407.38
2023-02-02T08:06:29.835Z,100391.31
2023-02-02T08:09:33.171Z,100389.66
2023-02-02T08:12:35.837Z,100393.13
2023-02-02T08:15:38.847Z,100378.31
2023-02-02T08:18:42.364Z,100382.78
2023-02-02T08:21:45.397Z,100393.34
2023-02-02T08:24:48.249Z,100380.94
2023-02-02T08:27:55.436Z,100381.88
2023-02-02T08:31:08.473Z,100382.91
2023-02-02T08:34:14.439Z,100377.56
2023-02-02T08:37:17.911Z,100373.81
2023-02-02T08:40:21.094Z,100368.66
2023-02-02T08:43:23.752Z,100361.53
2023-02-02T08:46:26.761Z,100337.59
2023-02-02T08:49:29.501Z,100353.59
2023-02-02T08:52:32.706Z,100365.22
2023-02-02T08:55:35.323Z,100360.66
2023-02-02T08:58:38.456Z,100354.25
2023-02-02T09:01:41.231Z,100362.13
2023-02-02T09:04:45.672Z,100370.28
2023-02-02T09:07:49.473Z,100373.16
2023-02-02T09:10:52.751Z,100371.44
2023-02-02T09:13:57.409Z,100375.06
2023-02-02T09:17:00.909Z,100389.97
2023-02-02T09:20:04.897Z,100396.22
2023-02-02T09:23:08.101Z,100398.03
2023-02-02T09:26:17.695Z,100398.94
2023-02-02T09:29:22.072Z,100401.22
2023-02-02T09:32:25.838Z,100401.38
2023-02-02T09:35:29.531Z,100401.38
2023-02-02T09:38:32.789Z,100388.00
2023-02-02T09:41:39.155Z,100371.19
2023-02-02T09:45:04.544Z,100382.78
2023-02-02T09:48:25.390Z,100381.91
2023-02-02T09:51:33.552Z,100387.09
2023-02-02T09:54:42.023Z,100384.22
2023-02-02T09:57:51.328Z,100385.13
2023-02-02T10:01:00.576Z,100383.66
2023-02-02T10:04:18.887Z,100373.94
2023-02-02T10:07:27.469Z,100379.97
2023-02-02T10:10:35.957Z,100380.00
2023-02-02T10:13:39.967Z,100379.03
2023-02-02T10:16:43.355Z,100390.44
2023-02-02T10:19:46.356Z,100384.41
2023-02-02T10:22:50.474Z,100385.41
2023-02-02T10:26:00.599Z,100384.38
2023-02-02T10:29:23.890Z,100374.47
2023-02-02T10:32:56.254Z,100384.78
2023-02-02T10:36:23.466Z,100381.91
2023-02-02T10:39:50.087Z,100384.72
2023-02-02T10:43:38.204Z,100387.56
2023-02-02T10:46:47.070Z,100393.00
2023-02-02T10:49:56.353Z,100378.78
2023-02-02T10:53:03.565Z,100381.53
2023-02-02T10:56:11.984Z,100388.63
2023-02-02T10:59:23.404Z,100387.66
2023-02-02T11:02:26.786Z,100383.13
2023-02-02T11:05:49.302Z,100370.69
2023-02-02T11:08:58.652Z,100374.34
2023-02-02T11:12:05.825Z,100381.47
2023-02-02T11:15:25.942Z,100387.75
2023-02-02T11:18:30.806Z,100378.06
2023-02-02T11:21:34.794Z,100378.97
2023-02-02T11:24:46.381Z,100378.16
2023-02-02T11:27:49.813Z,100386.44
2023-02-02T11:30:53.538Z,100399.84
2023-02-02T11:34:09.652Z,100397.19
2023-02-02T11:37:13.444Z,100402.59
2023-02-02T11:40:38.434Z,100405.28
2023-02-02T11:43:48.891Z,100378.47
2023-02-02T11:46:52.187Z,100393.56
2023-02-02T11:49:55.905Z,100413.19
2023-02-02T11:53:01.980Z,100397.16
2023-02-02T11:56:08.567Z,100400.72
2023-02-02T11:59:47.065Z,100381.12
2023-02-02T12:02:49.820Z,100396.28
2023-02-02T12:05:52.814Z,100396.28
2023-02-02T12:09:01.486Z,100405.19
2023-02-02T12:12:16.410Z,100414.97
2023-02-02T12:15:51.346Z,100415.81
2023-02-02T12:18:57.782Z,100422.00
2023-02-02T12:22:38.379Z,100421.97
2023-02-02T12:26:14.205Z,100423.78
2023-02-02T12:29:41.649Z,100419.41
2023-02-02T12:32:44.964Z,100427.37
2023-02-02T12:35:50.246Z,100429.87
2023-02-02T12:39:14.827Z,100426.28
2023-02-02T12:42:36.144Z,100405.91
2023-02-02T12:45:51.398Z,100418.28
2023-02-02T12:49:16.961Z,100422.75
2023-02-02T12:52:45.847Z,100424.47
2023-02-02T12:55:55.810Z,100427.91
2023-02-02T12:59:18.507Z,100426.09
2023-02-02T13:02:33.249Z,100402.81
2023-02-02T13:05:46.160Z,100423.25
2023-02-02T13:09:01.913Z,100427.59
2023-02-02T13:12:10.657Z,100429.28
2023-02-02T13:15:17.973Z,100431.06
2023-02-02T13:18:25.772Z,100434.66
2023-02-02T13:21:30.826Z,100433.75
2023-02-02T13:24:37.376Z,100435.38
2023-02-02T13:27:40.671Z,100441.72
2023-02-02T13:30:47.100Z,100436.22
2023-02-02T13:33:56.404Z,100440.66
2023-02-02T13:37:37.084Z,100447.72
2023-02-02T13:40:41.554Z,100448.53
2023-02-02T13:43:57.150Z,100452.09
2023-02-02T13:47:11.113Z,100456.50
2023-02-02T13:50:17.958Z,100455.62
2023-02-02T13:53:34.506Z,100453.78
2023-02-02T13:56:46.626Z,100460.00
2023-02-02T14:00:04.650Z,100463.53
2023-02-02T14:03:32.429Z,100465.25
2023-02-02T14:06:56.203Z,100469.69
2023-02-02T14:09:58.786Z,100485.56
2023-02-02T14:13:41.097Z,100479.22
2023-02-02T14:16:49.298Z,100479.19
2023-02-02T14:19:52.050Z,100491.69
2023-02-02T14:22:54.602Z,100494.19
2023-02-02T14:26:09.504Z,100489.75
2023-02-02T14:29:39.470Z,100490.66
2023-02-02T14:32:42.913Z,100497.69
2023-02-02T14:35:45.261Z,100500.34
2023-02-02T14:39:04.825Z,100494.19
2023-02-02T14:42:38.456Z,100504.87
2023-02-02T14:45:45.577Z,100512.06
2023-02-02T14:49:07.081Z,100522.72
2023-02-02T14:52:21.119Z,100511.13
2023-02-02T14:55:24.988Z,100508.50
2023-02-02T14:58:30.568Z,100520.88
2023-02-02T15:01:35.126Z,100513.72
2023-02-02T15:04:38.000Z,100510.12
2023-02-02T15:07:52.990Z,100517.12
2023-02-02T15:10:57.380Z,100519.69
2023-02-02T15:14:07.343Z,100524.81
2023-02-02T15:17:38.998Z,100531.72
2023-02-02T15:20:45.678Z,100532.56
2023-02-02T15:23:48.536Z,100536.19
2023-02-02T15:26:52.010Z,100526.44
2023-02-02T15:30:04.234Z,100540.56
2023-02-02T15:33:18.120Z,100545.63
2023-02-02T15:36:23.953Z,100537.53
2023-02-02T15:39:42.385Z,100556.88
2023-02-02T15:42:55.473Z,100556.81
2023-02-02T15:46:04.448Z,100554.97
2023-02-02T15:49:35.891Z,100568.09
2023-02-02T15:52:46.514Z,100568.91
2023-02-02T15:55:49.653Z,100576.75
2023-02-02T15:58:54.522Z,100585.63
2023-02-02T16:02:06.254Z,100591.84
2023-02-02T16:05:34.975Z,100606.87
2023-02-02T16:08:39.858Z,100611.34
2023-02-02T16:11:43.722Z,100614.88
2023-02-02T16:14:51.856Z,100626.50
2023-02-02T16:17:58.711Z,100636.25
2023-02-02T16:21:05.121Z,100639.03
2023-02-02T16:24:12.652Z,100638.94
2023-02-02T16:27:19.737Z,100651.28
2023-02-02T16:30:31.027Z,100657.53
2023-02-02T16:33:39.208Z,100646.75
2023-02-02T16:36:42.150Z,100657.44
2023-02-02T16:39:44.820Z,100661.88
2023-02-02T16:43:04.398Z,100656.44
2023-02-02T16:46:12.251Z,100668.94
2023-02-02T16:49:22.074Z,100657.34
2023-02-02T16:52:25.315Z,100659.19
2023-02-02T16:55:43.461Z,100662.78
2023-02-02T16:58:57.787Z,100672.50
2023-02-02T17:02:31.148Z,100683.22
2023-02-02T17:05:51.928Z,100667.00
2023-02-02T17:08:54.751Z,100692.16
2023-02-02T17:12:01.915Z,100698.47
2023-02-02T17:15:17.043Z,100701.09
2023-02-02T17:18:19.737Z,100702.75
2023-02-02T17:21:24.394Z,100704.25
2023-02-02T17:24:27.687Z,100711.78
2023-02-02T17:27:33.948Z,100721.13
2023-02-02T17:30:37.727Z,100729.03
2023-02-02T17:33:45.974Z,100721.56
2023-02-02T17:36:48.496Z,100746.28
2023-02-02T17:39:51.548Z,100744.66
2023-02-02T17:42:54.216Z,100754.97
2023-02-02T17:45:57.072Z,100753.06
2023-02-02T17:49:00.256Z,100762.06
2023-02-02T17:52:03.538Z,100752.22
2023-02-02T17:55:13.230Z,100751.94
2023-02-02T17:58:17.607Z,100755.41
2023-02-02T18:01:20.295Z,100755.13
2023-02-02T18:04:24.712Z,100767.50
2023-02-02T18:07:27.232Z,100770.84
2023-02-02T18:10:30.325Z,100777.59
2023-02-02T18:13:33.150Z,100784.62
2023-02-02T18:16:36.310Z,100788.22
2023-02-02T18:19:39.407Z,100790.81
2023-02-02T18:22:48.293Z,100795.94
2023-02-02T18:25:52.878Z,100797.69
2023-02-02T18:28:56.246Z,100801.84
2023-02-02T18:31:59.353Z,100787.16
2023-02-02T18:35:02.616Z,100806.09
2023-02-02T18:38:05.466Z,100817.34
2023-02-02T18:41:08.497Z,100814.56
2023-02-02T18:44:11.576Z,100824.97
2023-02-02T18:47:14.736Z,100828.31
2023-02-02T18:50:17.651Z,100824.22
2023-02-02T18:53:21.049Z,100827.78
2023-02-02T18:56:23.892Z,100827.03
2023-02-02T18:59:28.467Z,100837.59
2023-02-02T19:02:31.265Z,100836.00
2023-02-02T19:05:52.660Z,100838.03
2023-02-02T19:08:55.473Z,100843.25
2023-02-02T19:11:59.017Z,100843.06
2023-02-02T19:15:01.891Z,100859.69
2023-02-02T19:18:24.285Z,100853.63
2023-02-02T19:21:30.396Z,100869.88
2023-02-02T19:24:39.361Z,100874.00
2023-02-02T19:27:42.113Z,100874.56
2023-02-02T19:30:45.619Z,100884.81
2023-02-02T19:33:50.669Z,100897.28
2023-02-02T19:36:53.713Z,100899.84
2023-02-02T19:40:19.638Z,100910.84
2023-02-02T19:43:27.882Z,100905.34
2023-02-02T19:46:31.138Z,100907.16
2023-02-02T19:49:36.473Z,100914.75
2023-02-02T19:52:39.251Z,100924.50
2023-02-02T19:55:44.280Z,100928.22
2023-02-02T19:58:47.642Z,100931.50
2023-02-02T20:01:50.891Z,100941.22
2023-02-02T20:05:12.514Z,100948.59
2023-02-02T20:08:39.712Z,100946.75
2023-02-02T20:11:46.075Z,100960.19
2023-02-02T20:14:48.958Z,100967.50
2023-02-02T20:17:54.337Z,100978.69
2023-02-02T20:20:57.416Z,100989.03
2023-02-02T20:24:00.769Z,100996.56
2023-02-02T20:27:32.872Z,100985.31
2023-02-02T20:30:35.928Z,100993.50
2023-02-02T20:33:42.940Z,100992.16
2023-02-02T20:36:46.600Z,100996.09
2023-02-02T20:39:57.980Z,100998.16
2023-02-02T20:43:00.982Z,100996.84
2023-02-02T20:46:03.591Z,100987.91
2023-02-02T20:49:06.855Z,100993.88
2023-02-02T20:52:12.987Z,100990.16
2023-02-02T20:55:16.174Z,100997.75
2023-02-02T20:58:21.844Z,100994.25
2023-02-02T21:01:26.173Z,101014.72
2023-02-02T21:04:29.011Z,101001.59
2023-02-02T21:07:31.882Z,101011.06
2023-02-02T21:10:34.498Z,101018.75
2023-02-02T21:13:37.639Z,101016.09
2023-02-02T21:16:40.287Z,101020.56
2023-02-02T21:19:43.623Z,101021.47
2023-02-02T21:22:46.300Z,101035.22
2023-02-02T21:25:49.265Z,101031.13
2023-02-02T21:28:52.070Z,101035.62
2023-02-02T21:31:58.866Z,101047.97
2023-02-02T21:35:01.743Z,101035.88
2023-02-02T21:38:10.979Z,101049.91
2023-02-02T21:41:15.191Z,101043.25
2023-02-02T21:44:20.017Z,101041.44
2023-02-02T21:47:28.540Z,101042.41
2023-02-02T21:50:37.061Z,101044.16
2023-02-02T21:53:39.805Z,101042.97
2023-02-02T21:56:42.288Z,101049.31
2023-02-02T21:59:46.817Z,101048.38
2023-02-02T22:02:51.158Z,101055.50
2023-02-02T22:06:02.191Z,101059.44
2023-02-02T22:09:15.967Z,101065.03
2023-02-02T22:12:20.980Z,101053.87
2023-02-02T22:15:27.358Z,101067.97
2023-02-02T22:18:30.325Z,101070.72
2023-02-02T22:21:32.961Z,101064.41
2023-02-02T22:24:36.663Z,101067.31
2023-02-02T22:27:46.245Z,101076.12
2023-02-02T22:30:53.870Z,101084.19
2023-02-02T22:33:56.411Z,101073.87
2023-02-02T22:36:59.187Z,101085.22
2023-02-02T22:40:01.705Z,101086.53
2023-02-02T22:43:06.173Z,101096.59
2023-02-02T22:46:08.737Z,101096.69
2023-02-02T22:49:11.622Z,101095.47
2023-02-02T22:52:14.192Z,101097.66
2023-02-02T22:55:17.390Z,101104.03
2023-02-02T22:58:20.035Z,101099.25
2023-02-02T23:01:22.799Z,101111.34
2023-02-02T23:04:25.358Z,101116.31
2023-02-02T23:07:28.114Z,101123.09
2023-02-02T23:10:35.316Z,101115.88
2023-02-02T23:13:38.104Z,101111.69
2023-02-02T23:16:40.642Z,101119.19
2023-02-02T23:19:43.488Z,101126.03
2023-02-02T23:22:46.172Z,101123.31
2023-02-02T23:25:48.976Z,101125.00
2023-02-02T23:28:51.590Z,101144.88
2023-02-02T23:31:54.495Z,101149.41
2023-02-02T23:34:57.052Z,101159.22
2023-02-02T23:37:59.911Z,101170.34
2023-02-02T23:41:02.447Z,101173.22
2023-02-02T23:44:05.448Z,101178.28
2023-02-02T23:47:08.335Z,101193.06
2023-02-02T23:50:11.656Z,101193.09
2023-02-02T23:53:14.849Z,101189.53
2023-02-02T23:56:17.987Z,101197.25
2023-02-02T23:59:20.517Z,101199.50
